sensor_id;sensor_type;location;lat;lon;timestamp;temperature;humidity
68177;DHT22;56478;50.982;7.032;2023-05-10T00:00:08;14.75;88.27
68177;DHT22;56478;50.982;7.032;2023-05-10T00:02:34;14.74;88.49
68177;DHT22;56478;50.982;7.032;2023-05-10T00:04:59;14.75;88.82
68177;DHT22;56478;50.982;7.032;2023-05-10T00:07:25;14.79;88.78
68177;DHT22;56478;50.982;7.032;2023-05-10T00:09:50;14.84;88.67
68177;DHT22;56478;50.982;7.032;2023-05-10T00:12:16;14.81;88.55
68177;DHT22;56478;50.982;7.032;2023-05-10T00:14:41;14.77;88.30
68177;DHT22;56478;50.982;7.032;2023-05-10T00:17:07;14.71;88.75
68177;DHT22;56478;50.982;7.032;2023-05-10T00:19:32;14.75;88.55
68177;DHT22;56478;50.982;7.032;2023-05-10T00:21:58;14.72;88.66
68177;DHT22;56478;50.982;7.032;2023-05-10T00:24:23;14.75;88.57
68177;DHT22;56478;50.982;7.032;2023-05-10T00:26:48;14.77;88.67
68177;DHT22;56478;50.982;7.032;2023-05-10T00:29:14;14.75;88.72
68177;DHT22;56478;50.982;7.032;2023-05-10T00:31:39;14.75;88.68
68177;DHT22;56478;50.982;7.032;2023-05-10T00:34:04;14.75;88.35
68177;DHT22;56478;50.982;7.032;2023-05-10T00:36:29;14.72;88.71
68177;DHT22;56478;50.982;7.032;2023-05-10T00:38:56;14.72;88.87
68177;DHT22;56478;50.982;7.032;2023-05-10T00:41:21;14.72;88.67
68177;DHT22;56478;50.982;7.032;2023-05-10T00:43:47;14.77;88.97
68177;DHT22;56478;50.982;7.032;2023-05-10T00:46:13;14.79;88.70
68177;DHT22;56478;50.982;7.032;2023-05-10T00:48:39;14.78;88.75
68177;DHT22;56478;50.982;7.032;2023-05-10T00:51:04;14.79;89.11
68177;DHT22;56478;50.982;7.032;2023-05-10T00:53:31;14.78;88.75
68177;DHT22;56478;50.982;7.032;2023-05-10T00:55:57;14.77;88.83
68177;DHT22;56478;50.982;7.032;2023-05-10T00:58:22;14.78;88.82
68177;DHT22;56478;50.982;7.032;2023-05-10T01:00:49;14.81;88.96
68177;DHT22;56478;50.982;7.032;2023-05-10T01:03:14;14.81;89.09
68177;DHT22;56478;50.982;7.032;2023-05-10T01:05:40;14.77;88.77
68177;DHT22;56478;50.982;7.032;2023-05-10T01:08:05;14.75;88.75
68177;DHT22;56478;50.982;7.032;2023-05-10T01:10:31;14.84;88.80
68177;DHT22;56478;50.982;7.032;2023-05-10T01:12:56;14.79;88.83
68177;DHT22;56478;50.982;7.032;2023-05-10T01:15:22;14.82;88.80
68177;DHT22;56478;50.982;7.032;2023-05-10T01:17:48;14.84;88.89
68177;DHT22;56478;50.982;7.032;2023-05-10T01:20:13;14.82;88.71
68177;DHT22;56478;50.982;7.032;2023-05-10T01:28:08;14.75;89.03
68177;DHT22;56478;50.982;7.032;2023-05-10T01:33:13;14.74;88.83
68177;DHT22;56478;50.982;7.032;2023-05-10T01:38:50;14.75;89.11
68177;DHT22;56478;50.982;7.032;2023-05-10T01:44:02;14.82;89.30
68177;DHT22;56478;50.982;7.032;2023-05-10T01:46:32;14.75;89.19
68177;DHT22;56478;50.982;7.032;2023-05-10T01:48:58;14.67;89.01
68177;DHT22;56478;50.982;7.032;2023-05-10T01:51:26;14.71;89.29
68177;DHT22;56478;50.982;7.032;2023-05-10T01:53:54;14.69;89.68
68177;DHT22;56478;50.982;7.032;2023-05-10T01:56:24;14.77;89.60
68177;DHT22;56478;50.982;7.032;2023-05-10T01:58:51;14.78;89.00
68177;DHT22;56478;50.982;7.032;2023-05-10T02:01:17;14.77;88.84
68177;DHT22;56478;50.982;7.032;2023-05-10T02:03:43;14.78;88.72
68177;DHT22;56478;50.982;7.032;2023-05-10T02:06:10;14.82;88.89
68177;DHT22;56478;50.982;7.032;2023-05-10T02:08:38;14.78;88.53
68177;DHT22;56478;50.982;7.032;2023-05-10T02:11:04;14.77;88.79
68177;DHT22;56478;50.982;7.032;2023-05-10T02:13:31;14.68;88.72
68177;DHT22;56478;50.982;7.032;2023-05-10T02:15:57;14.69;88.89
68177;DHT22;56478;50.982;7.032;2023-05-10T02:18:23;14.68;88.77
68177;DHT22;56478;50.982;7.032;2023-05-10T02:20:50;14.71;88.46
68177;DHT22;56478;50.982;7.032;2023-05-10T02:23:17;14.64;88.69
68177;DHT22;56478;50.982;7.032;2023-05-10T02:25:43;14.64;89.01
68177;DHT22;56478;50.982;7.032;2023-05-10T02:28:11;14.71;88.71
68177;DHT22;56478;50.982;7.032;2023-05-10T02:30:36;14.58;88.45
68177;DHT22;56478;50.982;7.032;2023-05-10T02:33:03;14.58;88.87
68177;DHT22;56478;50.982;7.032;2023-05-10T02:35:29;14.64;88.83
68177;DHT22;56478;50.982;7.032;2023-05-10T02:37:56;14.64;88.88
68177;DHT22;56478;50.982;7.032;2023-05-10T02:40:22;14.64;88.67
68177;DHT22;56478;50.982;7.032;2023-05-10T02:42:47;14.57;88.84
68177;DHT22;56478;50.982;7.032;2023-05-10T02:45:17;14.61;88.76
68177;DHT22;56478;50.982;7.032;2023-05-10T02:47:43;14.58;88.64
68177;DHT22;56478;50.982;7.032;2023-05-10T02:50:09;14.57;88.62
68177;DHT22;56478;50.982;7.032;2023-05-10T02:52:36;14.56;89.02
68177;DHT22;56478;50.982;7.032;2023-05-10T02:55:03;14.57;88.92
68177;DHT22;56478;50.982;7.032;2023-05-10T02:57:33;14.54;88.84
68177;DHT22;56478;50.982;7.032;2023-05-10T02:59:59;14.51;88.88
68177;DHT22;56478;50.982;7.032;2023-05-10T03:02:25;14.52;88.98
68177;DHT22;56478;50.982;7.032;2023-05-10T03:04:51;14.54;88.79
68177;DHT22;56478;50.982;7.032;2023-05-10T03:07:16;14.56;88.91
68177;DHT22;56478;50.982;7.032;2023-05-10T03:09:44;14.54;88.89
68177;DHT22;56478;50.982;7.032;2023-05-10T03:12:57;14.56;88.69
68177;DHT22;56478;50.982;7.032;2023-05-10T03:17:41;14.52;88.80
68177;DHT22;56478;50.982;7.032;2023-05-10T03:20:12;14.56;88.76
68177;DHT22;56478;50.982;7.032;2023-05-10T03:22:43;14.58;88.95
68177;DHT22;56478;50.982;7.032;2023-05-10T03:25:10;14.57;88.91
68177;DHT22;56478;50.982;7.032;2023-05-10T03:27:36;14.58;89.21
68177;DHT22;56478;50.982;7.032;2023-05-10T03:30:04;14.61;89.08
68177;DHT22;56478;50.982;7.032;2023-05-10T03:32:30;14.61;89.36
68177;DHT22;56478;50.982;7.032;2023-05-10T03:34:57;14.60;88.82
68177;DHT22;56478;50.982;7.032;2023-05-10T03:37:22;14.60;88.97
68177;DHT22;56478;50.982;7.032;2023-05-10T03:39:48;14.60;89.21
68177;DHT22;56478;50.982;7.032;2023-05-10T03:42:13;14.52;89.16
68177;DHT22;56478;50.982;7.032;2023-05-10T03:44:39;14.56;89.17
68177;DHT22;56478;50.982;7.032;2023-05-10T03:47:04;14.57;89.12
68177;DHT22;56478;50.982;7.032;2023-05-10T03:49:30;14.56;88.86
68177;DHT22;56478;50.982;7.032;2023-05-10T03:51:55;14.57;88.90
68177;DHT22;56478;50.982;7.032;2023-05-10T03:54:20;14.58;89.07
68177;DHT22;56478;50.982;7.032;2023-05-10T03:56:46;14.61;89.00
68177;DHT22;56478;50.982;7.032;2023-05-10T03:59:13;14.63;89.04
68177;DHT22;56478;50.982;7.032;2023-05-10T04:01:38;14.61;88.96
68177;DHT22;56478;50.982;7.032;2023-05-10T04:04:03;14.64;89.22
68177;DHT22;56478;50.982;7.032;2023-05-10T04:06:29;14.64;89.46
68177;DHT22;56478;50.982;7.032;2023-05-10T04:08:54;14.67;89.49
68177;DHT22;56478;50.982;7.032;2023-05-10T04:11:20;14.67;89.73
68177;DHT22;56478;50.982;7.032;2023-05-10T04:13:47;14.64;89.23
68177;DHT22;56478;50.982;7.032;2023-05-10T04:16:12;14.63;89.22
68177;DHT22;56478;50.982;7.032;2023-05-10T04:18:37;14.65;89.34
68177;DHT22;56478;50.982;7.032;2023-05-10T04:21:03;14.65;89.32
68177;DHT22;56478;50.982;7.032;2023-05-10T04:23:28;14.68;89.31
68177;DHT22;56478;50.982;7.032;2023-05-10T04:25:58;14.68;89.28
68177;DHT22;56478;50.982;7.032;2023-05-10T04:28:24;14.68;89.46
68177;DHT22;56478;50.982;7.032;2023-05-10T04:30:49;14.69;89.78
68177;DHT22;56478;50.982;7.032;2023-05-10T04:33:14;14.65;89.82
68177;DHT22;56478;50.982;7.032;2023-05-10T04:35:40;14.64;89.93
68177;DHT22;56478;50.982;7.032;2023-05-10T04:38:05;14.61;89.89
68177;DHT22;56478;50.982;7.032;2023-05-10T04:40:31;14.69;90.39
68177;DHT22;56478;50.982;7.032;2023-05-10T04:42:56;14.64;89.84
68177;DHT22;56478;50.982;7.032;2023-05-10T04:45:21;14.64;90.09
68177;DHT22;56478;50.982;7.032;2023-05-10T04:47:47;14.68;89.99
68177;DHT22;56478;50.982;7.032;2023-05-10T04:50:12;14.67;89.88
68177;DHT22;56478;50.982;7.032;2023-05-10T04:52:38;14.67;89.58
68177;DHT22;56478;50.982;7.032;2023-05-10T04:55:03;14.58;89.93
68177;DHT22;56478;50.982;7.032;2023-05-10T04:57:29;14.60;90.03
68177;DHT22;56478;50.982;7.032;2023-05-10T04:59:54;14.60;89.61
68177;DHT22;56478;50.982;7.032;2023-05-10T05:02:19;14.64;89.72
68177;DHT22;56478;50.982;7.032;2023-05-10T05:04:45;14.67;89.68
68177;DHT22;56478;50.982;7.032;2023-05-10T05:07:10;14.67;89.83
68177;DHT22;56478;50.982;7.032;2023-05-10T05:09:36;14.71;89.55
68177;DHT22;56478;50.982;7.032;2023-05-10T05:12:01;14.79;89.45
68177;DHT22;56478;50.982;7.032;2023-05-10T05:14:26;14.84;89.44
68177;DHT22;56478;50.982;7.032;2023-05-10T05:16:52;14.81;89.34
68177;DHT22;56478;50.982;7.032;2023-05-10T05:19:17;14.84;89.55
68177;DHT22;56478;50.982;7.032;2023-05-10T05:21:42;14.84;89.32
68177;DHT22;56478;50.982;7.032;2023-05-10T05:24:08;14.89;89.08
68177;DHT22;56478;50.982;7.032;2023-05-10T05:26:33;14.84;89.03
68177;DHT22;56478;50.982;7.032;2023-05-10T05:28:59;14.85;89.01
68177;DHT22;56478;50.982;7.032;2023-05-10T05:31:24;14.81;88.85
68177;DHT22;56478;50.982;7.032;2023-05-10T05:33:49;14.96;88.44
68177;DHT22;56478;50.982;7.032;2023-05-10T05:36:15;14.92;88.03
68177;DHT22;56478;50.982;7.032;2023-05-10T05:38:40;14.91;87.95
68177;DHT22;56478;50.982;7.032;2023-05-10T05:41:05;15.06;87.27
68177;DHT22;56478;50.982;7.032;2023-05-10T05:43:31;15.02;87.37
68177;DHT22;56478;50.982;7.032;2023-05-10T05:45:56;15.09;87.39
68177;DHT22;56478;50.982;7.032;2023-05-10T05:48:22;15.19;87.57
68177;DHT22;56478;50.982;7.032;2023-05-10T05:50:48;15.12;87.08
68177;DHT22;56478;50.982;7.032;2023-05-10T05:53:13;15.14;87.40
68177;DHT22;56478;50.982;7.032;2023-05-10T05:55:38;15.13;87.78
68177;DHT22;56478;50.982;7.032;2023-05-10T05:58:04;15.09;87.37
68177;DHT22;56478;50.982;7.032;2023-05-10T06:00:29;15.13;87.46
68177;DHT22;56478;50.982;7.032;2023-05-10T06:02:54;15.07;87.41
68177;DHT22;56478;50.982;7.032;2023-05-10T06:05:20;15.02;87.33
68177;DHT22;56478;50.982;7.032;2023-05-10T06:07:46;15.06;86.59
68177;DHT22;56478;50.982;7.032;2023-05-10T06:10:11;15.10;87.23
68177;DHT22;56478;50.982;7.032;2023-05-10T06:12:36;15.07;87.09
68177;DHT22;56478;50.982;7.032;2023-05-10T06:15:02;15.18;87.52
68177;DHT22;56478;50.982;7.032;2023-05-10T06:17:27;15.09;86.81
68177;DHT22;56478;50.982;7.032;2023-05-10T06:19:53;15.12;86.53
68177;DHT22;56478;50.982;7.032;2023-05-10T06:22:19;15.09;86.63
68177;DHT22;56478;50.982;7.032;2023-05-10T06:24:44;15.06;87.00
68177;DHT22;56478;50.982;7.032;2023-05-10T06:27:09;14.99;86.50
68177;DHT22;56478;50.982;7.032;2023-05-10T06:29:35;15.07;86.38
68177;DHT22;56478;50.982;7.032;2023-05-10T06:32:00;15.03;86.56
68177;DHT22;56478;50.982;7.032;2023-05-10T06:34:26;15.06;87.38
68177;DHT22;56478;50.982;7.032;2023-05-10T06:36:51;15.00;86.73
68177;DHT22;56478;50.982;7.032;2023-05-10T06:39:16;14.96;86.30
68177;DHT22;56478;50.982;7.032;2023-05-10T06:41:42;15.02;86.23
68177;DHT22;56478;50.982;7.032;2023-05-10T06:44:07;15.13;86.08
68177;DHT22;56478;50.982;7.032;2023-05-10T06:46:33;16.09;83.47
68177;DHT22;56478;50.982;7.032;2023-05-10T06:48:58;16.38;81.99
68177;DHT22;56478;50.982;7.032;2023-05-10T06:51:24;16.43;81.31
68177;DHT22;56478;50.982;7.032;2023-05-10T06:53:49;16.57;80.87
68177;DHT22;56478;50.982;7.032;2023-05-10T06:56:14;16.73;80.44
68177;DHT22;56478;50.982;7.032;2023-05-10T06:58:40;16.99;79.71
68177;DHT22;56478;50.982;7.032;2023-05-10T07:01:05;17.07;79.05
68177;DHT22;56478;50.982;7.032;2023-05-10T07:03:31;16.93;79.62
68177;DHT22;56478;50.982;7.032;2023-05-10T07:06:03;16.58;80.98
68177;DHT22;56478;50.982;7.032;2023-05-10T07:08:32;16.76;80.40
68177;DHT22;56478;50.982;7.032;2023-05-10T07:11:01;16.45;81.45
68177;DHT22;56478;50.982;7.032;2023-05-10T07:13:26;16.55;81.14
68177;DHT22;56478;50.982;7.032;2023-05-10T07:15:52;16.35;81.59
68177;DHT22;56478;50.982;7.032;2023-05-10T07:18:17;16.51;81.60
68177;DHT22;56478;50.982;7.032;2023-05-10T07:20:42;16.40;81.50
68177;DHT22;56478;50.982;7.032;2023-05-10T07:23:08;16.33;81.71
68177;DHT22;56478;50.982;7.032;2023-05-10T07:25:33;16.64;81.14
68177;DHT22;56478;50.982;7.032;2023-05-10T07:27:58;16.78;80.48
68177;DHT22;56478;50.982;7.032;2023-05-10T07:30:24;16.67;80.85
68177;DHT22;56478;50.982;7.032;2023-05-10T07:32:49;16.83;80.43
68177;DHT22;56478;50.982;7.032;2023-05-10T07:35:14;16.85;80.49
68177;DHT22;56478;50.982;7.032;2023-05-10T07:37:40;16.52;81.32
68177;DHT22;56478;50.982;7.032;2023-05-10T07:40:05;16.76;80.79
68177;DHT22;56478;50.982;7.032;2023-05-10T07:42:31;16.82;80.48
68177;DHT22;56478;50.982;7.032;2023-05-10T07:44:56;17.10;79.65
68177;DHT22;56478;50.982;7.032;2023-05-10T07:47:22;17.02;79.97
68177;DHT22;56478;50.982;7.032;2023-05-10T07:49:47;17.16;79.43
68177;DHT22;56478;50.982;7.032;2023-05-10T07:52:12;17.27;79.40
68177;DHT22;56478;50.982;7.032;2023-05-10T07:54:38;17.42;78.78
68177;DHT22;56478;50.982;7.032;2023-05-10T07:57:04;17.47;78.59
68177;DHT22;56478;50.982;7.032;2023-05-10T07:59:29;17.16;79.80
68177;DHT22;56478;50.982;7.032;2023-05-10T08:01:54;17.06;80.14
68177;DHT22;56478;50.982;7.032;2023-05-10T08:04:19;16.90;80.84
68177;DHT22;56478;50.982;7.032;2023-05-10T08:06:45;16.90;80.39
68177;DHT22;56478;50.982;7.032;2023-05-10T08:09:10;16.34;82.31
68177;DHT22;56478;50.982;7.032;2023-05-10T08:11:36;16.30;82.01
68177;DHT22;56478;50.982;7.032;2023-05-10T08:14:01;16.51;81.64
68177;DHT22;56478;50.982;7.032;2023-05-10T08:16:26;16.28;82.51
68177;DHT22;56478;50.982;7.032;2023-05-10T08:18:52;16.10;83.13
68177;DHT22;56478;50.982;7.032;2023-05-10T08:21:20;15.91;83.91
68177;DHT22;56478;50.982;7.032;2023-05-10T08:23:45;15.91;84.61
68177;DHT22;56478;50.982;7.032;2023-05-10T08:26:10;15.93;85.23
68177;DHT22;56478;50.982;7.032;2023-05-10T08:28:36;15.95;85.25
68177;DHT22;56478;50.982;7.032;2023-05-10T08:31:01;15.88;85.59
68177;DHT22;56478;50.982;7.032;2023-05-10T08:33:27;15.96;84.88
68177;DHT22;56478;50.982;7.032;2023-05-10T08:35:52;15.88;85.39
68177;DHT22;56478;50.982;7.032;2023-05-10T08:38:17;15.92;84.91
68177;DHT22;56478;50.982;7.032;2023-05-10T08:40:43;15.95;85.24
68177;DHT22;56478;50.982;7.032;2023-05-10T08:43:12;16.19;84.51
68177;DHT22;56478;50.982;7.032;2023-05-10T08:45:41;16.05;84.38
68177;DHT22;56478;50.982;7.032;2023-05-10T08:48:07;16.12;84.97
68177;DHT22;56478;50.982;7.032;2023-05-10T08:50:33;16.30;84.51
68177;DHT22;56478;50.982;7.032;2023-05-10T08:53:00;16.21;84.60
68177;DHT22;56478;50.982;7.032;2023-05-10T08:55:28;16.12;84.96
68177;DHT22;56478;50.982;7.032;2023-05-10T08:57:54;16.21;84.95
68177;DHT22;56478;50.982;7.032;2023-05-10T09:00:20;15.91;85.02
68177;DHT22;56478;50.982;7.032;2023-05-10T09:02:45;15.96;84.76
68177;DHT22;56478;50.982;7.032;2023-05-10T09:05:13;16.05;84.88
68177;DHT22;56478;50.982;7.032;2023-05-10T09:07:41;15.95;84.81
68177;DHT22;56478;50.982;7.032;2023-05-10T09:10:06;15.98;85.56
68177;DHT22;56478;50.982;7.032;2023-05-10T09:12:32;16.00;85.63
68177;DHT22;56478;50.982;7.032;2023-05-10T09:14:58;15.99;85.37
68177;DHT22;56478;50.982;7.032;2023-05-10T09:17:24;16.02;85.79
68177;DHT22;56478;50.982;7.032;2023-05-10T09:19:56;15.98;85.69
68177;DHT22;56478;50.982;7.032;2023-05-10T09:22:21;16.08;85.11
68177;DHT22;56478;50.982;7.032;2023-05-10T09:24:47;16.10;86.02
68177;DHT22;56478;50.982;7.032;2023-05-10T09:27:12;16.19;86.03
68177;DHT22;56478;50.982;7.032;2023-05-10T09:29:44;16.28;84.71
68177;DHT22;56478;50.982;7.032;2023-05-10T09:32:10;16.50;85.00
68177;DHT22;56478;50.982;7.032;2023-05-10T09:34:35;16.51;84.74
68177;DHT22;56478;50.982;7.032;2023-05-10T09:37:04;16.37;84.32
68177;DHT22;56478;50.982;7.032;2023-05-10T09:39:30;16.24;83.79
68177;DHT22;56478;50.982;7.032;2023-05-10T09:41:57;16.34;84.31
68177;DHT22;56478;50.982;7.032;2023-05-10T09:44:22;16.34;83.79
68177;DHT22;56478;50.982;7.032;2023-05-10T09:46:48;16.33;84.59
68177;DHT22;56478;50.982;7.032;2023-05-10T09:49:14;16.33;83.84
68177;DHT22;56478;50.982;7.032;2023-05-10T09:51:39;16.24;84.26
68177;DHT22;56478;50.982;7.032;2023-05-10T09:54:14;16.33;84.31
68177;DHT22;56478;50.982;7.032;2023-05-10T09:56:40;16.33;84.76
68177;DHT22;56478;50.982;7.032;2023-05-10T09:59:06;16.37;84.86
68177;DHT22;56478;50.982;7.032;2023-05-10T10:01:31;16.31;84.10
68177;DHT22;56478;50.982;7.032;2023-05-10T10:03:57;16.43;84.46
68177;DHT22;56478;50.982;7.032;2023-05-10T10:06:23;16.43;83.10
68177;DHT22;56478;50.982;7.032;2023-05-10T10:08:48;16.52;82.33
68177;DHT22;56478;50.982;7.032;2023-05-10T10:11:14;16.34;82.28
68177;DHT22;56478;50.982;7.032;2023-05-10T10:13:40;16.33;83.00
68177;DHT22;56478;50.982;7.032;2023-05-10T10:16:05;16.31;83.89
68177;DHT22;56478;50.982;7.032;2023-05-10T10:18:31;16.23;83.68
68177;DHT22;56478;50.982;7.032;2023-05-10T10:20:56;16.21;83.45
68177;DHT22;56478;50.982;7.032;2023-05-10T10:23:21;16.24;82.66
68177;DHT22;56478;50.982;7.032;2023-05-10T10:25:47;16.47;81.98
68177;DHT22;56478;50.982;7.032;2023-05-10T10:30:59;16.73;81.44
68177;DHT22;56478;50.982;7.032;2023-05-10T10:36:10;17.75;80.59
68177;DHT22;56478;50.982;7.032;2023-05-10T10:38:38;18.24;79.15
68177;DHT22;56478;50.982;7.032;2023-05-10T10:41:39;18.45;75.17
68177;DHT22;56478;50.982;7.032;2023-05-10T10:46:58;19.06;75.14
68177;DHT22;56478;50.982;7.032;2023-05-10T10:49:24;19.15;74.09
68177;DHT22;56478;50.982;7.032;2023-05-10T10:54:34;20.84;67.16
68177;DHT22;56478;50.982;7.032;2023-05-10T10:57:41;21.18;68.12
68177;DHT22;56478;50.982;7.032;2023-05-10T10:59:54;21.45;67.28
68177;DHT22;56478;50.982;7.032;2023-05-10T11:07:51;20.37;65.96
68177;DHT22;56478;50.982;7.032;2023-05-10T11:10:19;20.01;69.31
68177;DHT22;56478;50.982;7.032;2023-05-10T11:13:00;19.85;67.98
68177;DHT22;56478;50.982;7.032;2023-05-10T11:15:36;19.17;68.55
68177;DHT22;56478;50.982;7.032;2023-05-10T11:20:57;18.76;69.52
68177;DHT22;56478;50.982;7.032;2023-05-10T11:23:28;18.41;71.87
68177;DHT22;56478;50.982;7.032;2023-05-10T11:25:54;17.96;73.97
68177;DHT22;56478;50.982;7.032;2023-05-10T11:28:20;17.89;75.82
68177;DHT22;56478;50.982;7.032;2023-05-10T11:30:45;17.58;73.98
68177;DHT22;56478;50.982;7.032;2023-05-10T11:33:14;17.57;75.65
68177;DHT22;56478;50.982;7.032;2023-05-10T11:35:40;17.40;76.55
68177;DHT22;56478;50.982;7.032;2023-05-10T11:38:12;17.31;76.98
68177;DHT22;56478;50.982;7.032;2023-05-10T11:40:38;17.44;80.02
68177;DHT22;56478;50.982;7.032;2023-05-10T11:43:04;17.57;75.87
68177;DHT22;56478;50.982;7.032;2023-05-10T11:45:34;17.85;75.59
68177;DHT22;56478;50.982;7.032;2023-05-10T11:47:59;18.09;74.69
68177;DHT22;56478;50.982;7.032;2023-05-10T11:50:26;18.23;73.67
68177;DHT22;56478;50.982;7.032;2023-05-10T11:52:52;18.43;71.67
68177;DHT22;56478;50.982;7.032;2023-05-10T11:55:18;18.79;70.69
68177;DHT22;56478;50.982;7.032;2023-05-10T11:57:43;18.93;69.48
68177;DHT22;56478;50.982;7.032;2023-05-10T12:00:11;18.89;72.05
68177;DHT22;56478;50.982;7.032;2023-05-10T12:02:36;19.14;70.48
68177;DHT22;56478;50.982;7.032;2023-05-10T12:05:02;18.95;73.99
68177;DHT22;56478;50.982;7.032;2023-05-10T12:07:28;18.55;71.05
68177;DHT22;56478;50.982;7.032;2023-05-10T12:12:41;18.16;70.41
68177;DHT22;56478;50.982;7.032;2023-05-10T12:15:10;18.14;68.64
68177;DHT22;56478;50.982;7.032;2023-05-10T12:17:37;18.18;69.61
68177;DHT22;56478;50.982;7.032;2023-05-10T12:22:44;18.40;72.21
68177;DHT22;56478;50.982;7.032;2023-05-10T12:25:09;18.40;73.39
68177;DHT22;56478;50.982;7.032;2023-05-10T12:27:35;18.54;71.80
68177;DHT22;56478;50.982;7.032;2023-05-10T12:30:01;18.65;70.12
68177;DHT22;56478;50.982;7.032;2023-05-10T12:32:37;18.99;67.01
68177;DHT22;56478;50.982;7.032;2023-05-10T12:35:03;18.99;66.54
68177;DHT22;56478;50.982;7.032;2023-05-10T12:37:28;18.85;67.47
68177;DHT22;56478;50.982;7.032;2023-05-10T12:39:54;18.69;67.79
68177;DHT22;56478;50.982;7.032;2023-05-10T12:42:19;18.40;71.06
68177;DHT22;56478;50.982;7.032;2023-05-10T12:44:45;18.37;69.78
68177;DHT22;56478;50.982;7.032;2023-05-10T12:47:10;18.55;68.54
68177;DHT22;56478;50.982;7.032;2023-05-10T12:49:35;18.43;67.69
68177;DHT22;56478;50.982;7.032;2023-05-10T12:52:01;18.90;68.93
68177;DHT22;56478;50.982;7.032;2023-05-10T12:54:26;19.15;66.56
68177;DHT22;56478;50.982;7.032;2023-05-10T12:56:52;19.70;67.89
68177;DHT22;56478;50.982;7.032;2023-05-10T12:59:18;20.16;64.77
68177;DHT22;56478;50.982;7.032;2023-05-10T13:01:43;20.35;63.36
68177;DHT22;56478;50.982;7.032;2023-05-10T13:04:08;20.27;61.20
68177;DHT22;56478;50.982;7.032;2023-05-10T13:06:34;20.16;64.61
68177;DHT22;56478;50.982;7.032;2023-05-10T13:09:00;20.13;67.69
68177;DHT22;56478;50.982;7.032;2023-05-10T13:11:25;20.13;65.14
68177;DHT22;56478;50.982;7.032;2023-05-10T13:13:51;20.10;61.86
68177;DHT22;56478;50.982;7.032;2023-05-10T13:16:16;20.46;61.22
68177;DHT22;56478;50.982;7.032;2023-05-10T13:18:41;20.28;62.54
68177;DHT22;56478;50.982;7.032;2023-05-10T13:21:07;20.00;62.00
68177;DHT22;56478;50.982;7.032;2023-05-10T13:23:32;19.98;61.22
68177;DHT22;56478;50.982;7.032;2023-05-10T13:25:58;19.76;66.01
68177;DHT22;56478;50.982;7.032;2023-05-10T13:28:23;20.24;61.44
68177;DHT22;56478;50.982;7.032;2023-05-10T13:30:48;20.01;62.75
68177;DHT22;56478;50.982;7.032;2023-05-10T13:33:14;20.14;60.84
68177;DHT22;56478;50.982;7.032;2023-05-10T13:35:39;20.09;61.64
68177;DHT22;56478;50.982;7.032;2023-05-10T13:38:04;20.22;63.26
68177;DHT22;56478;50.982;7.032;2023-05-10T13:40:32;20.31;61.07
68177;DHT22;56478;50.982;7.032;2023-05-10T13:42:58;20.56;60.36
68177;DHT22;56478;50.982;7.032;2023-05-10T13:45:23;20.56;62.59
68177;DHT22;56478;50.982;7.032;2023-05-10T13:47:49;20.72;61.14
68177;DHT22;56478;50.982;7.032;2023-05-10T13:50:14;20.69;59.96
68177;DHT22;56478;50.982;7.032;2023-05-10T13:52:40;20.80;62.40
68177;DHT22;56478;50.982;7.032;2023-05-10T13:55:05;20.75;61.11
68177;DHT22;56478;50.982;7.032;2023-05-10T13:57:30;20.57;61.94
68177;DHT22;56478;50.982;7.032;2023-05-10T13:59:56;20.52;64.37
68177;DHT22;56478;50.982;7.032;2023-05-10T14:02:22;20.82;64.53
68177;DHT22;56478;50.982;7.032;2023-05-10T14:04:47;20.97;63.56
68177;DHT22;56478;50.982;7.032;2023-05-10T14:07:13;20.97;59.75
68177;DHT22;56478;50.982;7.032;2023-05-10T14:09:39;21.27;60.23
68177;DHT22;56478;50.982;7.032;2023-05-10T14:12:04;21.08;63.81
68177;DHT22;56478;50.982;7.032;2023-05-10T14:14:29;20.94;61.79
68177;DHT22;56478;50.982;7.032;2023-05-10T14:16:55;20.68;60.25
68177;DHT22;56478;50.982;7.032;2023-05-10T14:19:20;20.51;60.39
68177;DHT22;56478;50.982;7.032;2023-05-10T14:21:46;20.52;62.61
68177;DHT22;56478;50.982;7.032;2023-05-10T14:24:11;20.51;63.92
68177;DHT22;56478;50.982;7.032;2023-05-10T14:26:37;20.69;58.95
68177;DHT22;56478;50.982;7.032;2023-05-10T14:29:02;20.63;61.98
68177;DHT22;56478;50.982;7.032;2023-05-10T14:31:27;20.45;65.64
68177;DHT22;56478;50.982;7.032;2023-05-10T14:33:55;20.41;63.71
68177;DHT22;56478;50.982;7.032;2023-05-10T14:36:20;20.66;60.30
68177;DHT22;56478;50.982;7.032;2023-05-10T14:38:46;20.69;63.02
68177;DHT22;56478;50.982;7.032;2023-05-10T14:41:11;20.55;60.49
68177;DHT22;56478;50.982;7.032;2023-05-10T14:43:39;20.51;60.83
68177;DHT22;56478;50.982;7.032;2023-05-10T14:46:05;20.37;61.28
68177;DHT22;56478;50.982;7.032;2023-05-10T14:48:30;20.38;59.87
68177;DHT22;56478;50.982;7.032;2023-05-10T14:50:55;20.00;66.09
68177;DHT22;56478;50.982;7.032;2023-05-10T14:53:21;20.03;61.10
68177;DHT22;56478;50.982;7.032;2023-05-10T14:55:46;19.52;67.74
68177;DHT22;56478;50.982;7.032;2023-05-10T14:58:11;19.57;64.39
68177;DHT22;56478;50.982;7.032;2023-05-10T15:00:37;19.45;67.17
68177;DHT22;56478;50.982;7.032;2023-05-10T15:03:02;19.39;67.20
68177;DHT22;56478;50.982;7.032;2023-05-10T15:05:28;19.32;68.99
68177;DHT22;56478;50.982;7.032;2023-05-10T15:07:53;19.32;70.17
68177;DHT22;56478;50.982;7.032;2023-05-10T15:10:19;19.00;72.19
68177;DHT22;56478;50.982;7.032;2023-05-10T15:12:44;18.86;67.69
68177;DHT22;56478;50.982;7.032;2023-05-10T15:15:09;19.02;68.57
68177;DHT22;56478;50.982;7.032;2023-05-10T15:17:35;18.83;74.94
68177;DHT22;56478;50.982;7.032;2023-05-10T15:20:00;18.54;74.44
68177;DHT22;56478;50.982;7.032;2023-05-10T15:22:28;18.35;76.58
68177;DHT22;56478;50.982;7.032;2023-05-10T15:24:53;18.31;78.79
68177;DHT22;56478;50.982;7.032;2023-05-10T15:27:18;18.14;77.58
68177;DHT22;56478;50.982;7.032;2023-05-10T15:29:44;18.16;77.29
68177;DHT22;56478;50.982;7.032;2023-05-10T15:32:09;18.00;77.74
68177;DHT22;56478;50.982;7.032;2023-05-10T15:34:34;17.99;79.81
68177;DHT22;56478;50.982;7.032;2023-05-10T15:37:00;17.83;76.68
68177;DHT22;56478;50.982;7.032;2023-05-10T15:39:26;17.93;78.58
68177;DHT22;56478;50.982;7.032;2023-05-10T15:41:51;17.83;77.39
68177;DHT22;56478;50.982;7.032;2023-05-10T15:44:16;17.69;79.33
68177;DHT22;56478;50.982;7.032;2023-05-10T15:46:43;17.65;81.10
68177;DHT22;56478;50.982;7.032;2023-05-10T15:49:08;17.55;81.17
68177;DHT22;56478;50.982;7.032;2023-05-10T15:51:34;17.38;80.78
68177;DHT22;56478;50.982;7.032;2023-05-10T15:53:59;17.31;80.91
68177;DHT22;56478;50.982;7.032;2023-05-10T15:56:26;17.23;80.49
68177;DHT22;56478;50.982;7.032;2023-05-10T15:58:52;17.17;82.42
68177;DHT22;56478;50.982;7.032;2023-05-10T16:01:17;17.09;81.17
68177;DHT22;56478;50.982;7.032;2023-05-10T16:03:43;17.07;82.64